Time;durP1;ratioP1;P1;durP2;ratioP2;P2;SDS_P1;SDS_P2;PMS_P1;PMS_P2;Temp;Humidity;BMP_temperature;BMP_pressure;BME280_temperature;BME280_humidity;BME280_pressure;Samples;Min_cycle;Max_cycle;Signal;HPM_P1;HPM_P2
2022/01/02 00:00:09;;;;;;;;;;;0.20;96.70;;;;;;5054937;28;19943;-66
2022/01/02 00:02:36;;;;;;;;;;;0.40;96.70;;;;;;5055159;28;19939;-66
2022/01/02 00:05:05;;;;;;;;;;;0.40;96.70;;;;;;5054796;28;19935;-66
2022/01/02 00:07:33;;;;;;;;;;;0.40;96.60;;;;;;5054762;28;19953;-66
2022/01/02 00:10:01;;;;;;;;;;;0.30;96.50;;;;;;5054503;28;20014;-66
2022/01/02 00:12:28;;;;;;;;;;;0.20;96.40;;;;;;5054629;28;19948;-66
2022/01/02 00:14:54;;;;;;;;;;;0.20;96.40;;;;;;5054622;28;19942;-66
2022/01/02 00:17:23;;;;;;;;;;;0.10;96.30;;;;;;5054580;28;20037;-66
2022/01/02 00:19:55;;;;;;;;;;;0.20;96.30;;;;;;5054500;28;20489;-66
2022/01/02 00:22:25;;;;;;;;;;;0.20;96.40;;;;;;5054508;28;20031;-66
2022/01/02 00:24:50;;;;;;;;;;;0.20;96.30;;;;;;5054459;28;19989;-66
2022/01/02 00:27:16;;;;;;;;;;;0.10;96.20;;;;;;5054304;28;19975;-66
2022/01/02 00:29:42;;;;;;;;;;;0.00;96.20;;;;;;5054357;28;19945;-66
2022/01/02 00:32:08;;;;;;;;;;;0.00;96.20;;;;;;5053619;28;19985;-66
2022/01/02 00:34:35;;;;;;;;;;;0.00;96.20;;;;;;5054205;28;19936;-66
2022/01/02 00:37:00;;;;;;;;;;;0.00;96.30;;;;;;5054140;28;19953;-66
2022/01/02 00:39:26;;;;;;;;;;;-3276.70;96.30;;;;;;5054153;28;19940;-66
2022/01/02 00:41:51;;;;;;;;;;;-3276.70;96.30;;;;;;5054138;28;19941;-66
2022/01/02 00:44:20;;;;;;;;;;;-3276.60;96.30;;;;;;5054331;28;20050;-66
2022/01/02 00:46:52;;;;;;;;;;;-3276.70;96.30;;;;;;5036126;28;19957;-66
2022/01/02 00:49:24;;;;;;;;;;;-3276.70;96.40;;;;;;5054024;28;19938;-66
2022/01/02 00:51:52;;;;;;;;;;;-3276.70;96.60;;;;;;5053942;28;19939;-66
2022/01/02 00:54:22;;;;;;;;;;;0.00;96.60;;;;;;5053826;28;20007;-66
2022/01/02 00:56:51;;;;;;;;;;;-3276.70;96.60;;;;;;5053837;28;19936;-66
2022/01/02 00:59:40;;;;;;;;;;;-3276.70;96.70;;;;;;5053814;28;20029;-66
2022/01/02 01:02:08;;;;;;;;;;;-3276.70;96.70;;;;;;5016016;28;20036;-66
2022/01/02 01:04:35;;;;;;;;;;;0.00;96.80;;;;;;5036109;28;19949;-66
2022/01/02 01:07:05;;;;;;;;;;;0.00;96.90;;;;;;5053700;28;20023;-66
2022/01/02 01:09:31;;;;;;;;;;;0.00;96.90;;;;;;5053350;28;19977;-66
2022/01/02 01:11:58;;;;;;;;;;;0.00;97.00;;;;;;5053577;28;19980;-66
2022/01/02 01:14:24;;;;;;;;;;;0.10;97.00;;;;;;5035511;28;20406;-66
2022/01/02 01:16:49;;;;;;;;;;;0.10;97.10;;;;;;5053528;28;19988;-66
2022/01/02 01:19:15;;;;;;;;;;;0.10;97.10;;;;;;5053713;28;19936;-66
2022/01/02 01:21:40;;;;;;;;;;;0.20;97.10;;;;;;5053413;28;19945;-66
2022/01/02 01:24:06;;;;;;;;;;;0.20;97.20;;;;;;5053399;28;19940;-66
2022/01/02 01:26:31;;;;;;;;;;;0.20;97.20;;;;;;5053278;28;20079;-66
2022/01/02 01:28:57;;;;;;;;;;;0.20;97.20;;;;;;5053316;28;19983;-66
2022/01/02 01:31:23;;;;;;;;;;;0.30;97.20;;;;;;5053299;28;20301;-66
2022/01/02 01:33:48;;;;;;;;;;;0.20;97.20;;;;;;5053205;28;20331;-66
2022/01/02 01:36:16;;;;;;;;;;;0.20;97.20;;;;;;5053253;28;20292;-66
2022/01/02 01:38:41;;;;;;;;;;;0.20;97.20;;;;;;5053194;28;19967;-66
2022/01/02 01:41:14;;;;;;;;;;;0.10;97.10;;;;;;5053402;28;20304;-66
2022/01/02 01:43:52;;;;;;;;;;;0.00;97.10;;;;;;5052510;28;19957;-66
2022/01/02 01:46:18;;;;;;;;;;;0.00;97.20;;;;;;5053094;28;19949;-66
2022/01/02 01:48:51;;;;;;;;;;;0.10;97.20;;;;;;5053032;28;19946;-66
2022/01/02 01:51:17;;;;;;;;;;;0.20;97.30;;;;;;5018537;28;20048;-66
2022/01/02 01:53:43;;;;;;;;;;;0.20;97.30;;;;;;5052943;28;20412;-66
2022/01/02 01:56:08;;;;;;;;;;;0.30;97.30;;;;;;5053005;28;19944;-66
2022/01/02 01:58:34;;;;;;;;;;;0.40;97.40;;;;;;5052917;28;19942;-66
2022/01/02 02:01:01;;;;;;;;;;;0.50;97.40;;;;;;5052907;28;19948;-66
2022/01/02 02:03:26;;;;;;;;;;;0.40;97.30;;;;;;5052903;28;19941;-66
2022/01/02 02:05:52;;;;;;;;;;;0.40;97.30;;;;;;5052826;28;20025;-66
2022/01/02 02:08:19;;;;;;;;;;;0.50;97.40;;;;;;5052518;28;19945;-66
2022/01/02 02:10:51;;;;;;;;;;;0.50;97.40;;;;;;5052822;28;19943;-66
2022/01/02 02:13:17;;;;;;;;;;;0.50;97.30;;;;;;5034799;28;19966;-66
2022/01/02 02:15:43;;;;;;;;;;;0.50;97.30;;;;;;5052674;28;19948;-66
2022/01/02 02:18:08;;;;;;;;;;;0.50;97.30;;;;;;5052983;28;19952;-66
2022/01/02 02:20:36;;;;;;;;;;;0.50;97.40;;;;;;5034987;28;19944;-66
2022/01/02 02:23:02;;;;;;;;;;;0.60;97.40;;;;;;5053044;28;19953;-66
2022/01/02 02:25:29;;;;;;;;;;;0.70;97.40;;;;;;5053039;28;19946;-66
2022/01/02 02:27:56;;;;;;;;;;;0.70;97.40;;;;;;5052514;28;19975;-66
2022/01/02 02:30:22;;;;;;;;;;;0.50;97.30;;;;;;5052650;28;19945;-66
2022/01/02 02:32:48;;;;;;;;;;;0.50;97.20;;;;;;5052557;28;19961;-66
2022/01/02 02:35:14;;;;;;;;;;;0.40;97.20;;;;;;5052547;28;20311;-66
2022/01/02 02:37:43;;;;;;;;;;;0.40;97.20;;;;;;5052516;28;19984;-66
2022/01/02 02:40:10;;;;;;;;;;;0.30;97.20;;;;;;5052541;28;20381;-66
2022/01/02 02:42:46;;;;;;;;;;;0.30;97.20;;;;;;5034681;28;20004;-66
2022/01/02 02:50:45;;;;;;;;;;;0.60;97.40;;;;;;5052798;28;19950;-66
2022/01/02 02:53:11;;;;;;;;;;;0.70;97.40;;;;;;5052366;28;19974;-66
2022/01/02 02:55:43;;;;;;;;;;;0.80;97.50;;;;;;5055084;28;19979;-66
2022/01/02 02:58:37;;;;;;;;;;;0.80;97.50;;;;;;5056077;28;20034;-66
2022/01/02 03:00:54;;;;;;;;;;;0.80;97.40;;;;;;5055871;28;19940;-66
2022/01/02 03:03:20;;;;;;;;;;;0.80;97.40;;;;;;5055970;28;19960;-66
2022/01/02 03:05:45;;;;;;;;;;;0.80;97.40;;;;;;5055955;28;20028;-66
2022/01/02 03:08:11;;;;;;;;;;;0.80;97.40;;;;;;5055661;28;20351;-66
2022/01/02 03:10:36;;;;;;;;;;;0.80;97.30;;;;;;5055919;28;20345;-66
2022/01/02 03:13:02;;;;;;;;;;;0.80;97.30;;;;;;5055753;28;20308;-66
2022/01/02 03:15:27;;;;;;;;;;;0.80;97.30;;;;;;5055783;28;19938;-66
2022/01/02 03:17:53;;;;;;;;;;;0.80;97.30;;;;;;5037854;28;19999;-66
2022/01/02 03:20:19;;;;;;;;;;;0.80;97.20;;;;;;5055708;28;19944;-66
2022/01/02 03:22:44;;;;;;;;;;;0.70;97.20;;;;;;5055666;28;19945;-66
2022/01/02 03:25:13;;;;;;;;;;;0.60;97.10;;;;;;5055614;28;20311;-66
2022/01/02 03:27:42;;;;;;;;;;;0.50;97.10;;;;;;5055442;28;19946;-66
2022/01/02 03:30:09;;;;;;;;;;;0.60;97.10;;;;;;5037557;28;19986;-66
2022/01/02 03:32:34;;;;;;;;;;;0.60;97.00;;;;;;5055413;28;19940;-66
2022/01/02 03:35:00;;;;;;;;;;;0.70;97.00;;;;;;5055743;28;19959;-66
2022/01/02 03:37:28;;;;;;;;;;;0.60;97.00;;;;;;5055391;28;19938;-66
2022/01/02 03:39:54;;;;;;;;;;;0.70;97.00;;;;;;5055303;28;19960;-66
2022/01/02 03:42:20;;;;;;;;;;;0.70;97.00;;;;;;5055317;28;19946;-66
2022/01/02 03:44:46;;;;;;;;;;;0.70;97.00;;;;;;5055257;28;19949;-66
2022/01/02 03:47:11;;;;;;;;;;;0.80;96.90;;;;;;5055216;28;20397;-66
2022/01/02 03:49:37;;;;;;;;;;;0.70;96.90;;;;;;5055177;28;20341;-66
2022/01/02 03:52:03;;;;;;;;;;;0.60;96.70;;;;;;5055120;28;19941;-66
2022/01/02 03:54:29;;;;;;;;;;;0.50;96.60;;;;;;5055003;28;20008;-66
2022/01/02 03:56:54;;;;;;;;;;;0.40;96.60;;;;;;5055028;28;19943;-66
2022/01/02 03:59:20;;;;;;;;;;;0.40;96.50;;;;;;5055253;28;20298;-66
2022/01/02 04:01:45;;;;;;;;;;;0.30;96.40;;;;;;5054912;28;19984;-66
2022/01/02 04:04:11;;;;;;;;;;;0.20;96.30;;;;;;5054871;28;19950;-66
2022/01/02 04:06:37;;;;;;;;;;;0.20;96.30;;;;;;5053856;28;20443;-66
2022/01/02 04:09:02;;;;;;;;;;;0.20;96.40;;;;;;5054557;28;19977;-66
2022/01/02 04:11:28;;;;;;;;;;;0.20;96.30;;;;;;5055064;28;20419;-66
2022/01/02 04:13:54;;;;;;;;;;;0.20;96.40;;;;;;5054578;28;19965;-65
2022/01/02 04:16:19;;;;;;;;;;;0.00;96.30;;;;;;5054643;28;20413;-66
2022/01/02 04:18:45;;;;;;;;;;;-3276.60;96.30;;;;;;5036677;28;19947;-66
2022/01/02 04:21:10;;;;;;;;;;;-3276.50;96.40;;;;;;5054584;28;19946;-66
2022/01/02 04:23:37;;;;;;;;;;;-3276.50;96.60;;;;;;5054522;28;20420;-66
2022/01/02 04:26:04;;;;;;;;;;;-3276.50;96.70;;;;;;5036577;28;19942;-66
2022/01/02 04:28:29;;;;;;;;;;;-3276.50;96.80;;;;;;5036517;28;19941;-66
2022/01/02 04:30:55;;;;;;;;;;;-3276.50;96.90;;;;;;5054388;28;20420;-66
2022/01/02 04:33:20;;;;;;;;;;;-3276.60;97.00;;;;;;5054260;28;19960;-66
2022/01/02 04:35:46;;;;;;;;;;;-3276.60;97.00;;;;;;5054244;28;19988;-65
2022/01/02 04:38:13;;;;;;;;;;;-3276.60;97.00;;;;;;5054235;28;19968;-66
2022/01/02 04:40:39;;;;;;;;;;;-3276.60;97.10;;;;;;5054165;28;20035;-66
2022/01/02 04:43:05;;;;;;;;;;;-3276.60;97.10;;;;;;5054090;28;19997;-66
2022/01/02 04:45:30;;;;;;;;;;;-3276.60;97.20;;;;;;5054092;28;19970;-66
2022/01/02 04:47:56;;;;;;;;;;;-3276.60;97.20;;;;;;5054028;28;19938;-66
2022/01/02 04:50:21;;;;;;;;;;;-3276.60;97.20;;;;;;5053902;28;19967;-66
2022/01/02 04:52:47;;;;;;;;;;;-3276.70;97.30;;;;;;5035920;28;19981;-66
2022/01/02 04:55:13;;;;;;;;;;;0.00;97.30;;;;;;5053901;28;19939;-66
2022/01/02 04:57:38;;;;;;;;;;;-3276.70;97.30;;;;;;5053857;28;20308;-66
2022/01/02 05:00:05;;;;;;;;;;;0.00;97.30;;;;;;5053824;28;19946;-66
2022/01/02 05:02:31;;;;;;;;;;;-3276.70;97.30;;;;;;5035773;28;20010;-66
2022/01/02 05:04:56;;;;;;;;;;;-3276.70;97.20;;;;;;5053699;28;19944;-66
2022/01/02 05:07:22;;;;;;;;;;;-3276.70;97.30;;;;;;5053631;28;20322;-66
2022/01/02 05:09:47;;;;;;;;;;;-3276.70;97.30;;;;;;5075429;22;20433;-66
2022/01/02 05:12:13;;;;;;;;;;;-3276.70;97.30;;;;;;5073542;28;20455;-66
2022/01/02 05:14:39;;;;;;;;;;;0.00;97.30;;;;;;5073488;28;20427;-66
2022/01/02 05:17:04;;;;;;;;;;;0.10;97.40;;;;;;5072032;28;20405;-66
2022/01/02 05:19:30;;;;;;;;;;;0.20;97.50;;;;;;5073710;28;20416;-66
2022/01/02 05:21:57;;;;;;;;;;;0.30;97.50;;;;;;5073408;28;20040;-66
2022/01/02 05:24:22;;;;;;;;;;;0.40;97.50;;;;;;5073441;28;19944;-66
2022/01/02 05:26:48;;;;;;;;;;;0.40;97.40;;;;;;5073255;28;20463;-66
2022/01/02 05:29:15;;;;;;;;;;;0.40;97.40;;;;;;5073345;28;20422;-66
2022/01/02 05:31:40;;;;;;;;;;;0.40;97.40;;;;;;5073529;28;19942;-66
2022/01/02 05:34:06;;;;;;;;;;;0.40;97.30;;;;;;5073483;28;19962;-66
2022/01/02 05:36:31;;;;;;;;;;;0.40;97.30;;;;;;5073255;28;20418;-66
2022/01/02 05:38:57;;;;;;;;;;;0.30;97.20;;;;;;5071963;28;20479;-66
2022/01/02 05:41:23;;;;;;;;;;;0.30;97.20;;;;;;5073174;28;19944;-66
2022/01/02 05:43:48;;;;;;;;;;;0.30;97.10;;;;;;5073185;28;20367;-66
2022/01/02 05:46:14;;;;;;;;;;;0.20;97.10;;;;;;5073130;28;19953;-66
2022/01/02 05:48:39;;;;;;;;;;;0.20;97.00;;;;;;5071853;28;19946;-66
2022/01/02 05:51:05;;;;;;;;;;;0.20;97.00;;;;;;5073068;28;19941;-66
2022/01/02 05:53:30;;;;;;;;;;;0.10;97.00;;;;;;5072978;28;19973;-66
2022/01/02 05:55:56;;;;;;;;;;;0.10;97.00;;;;;;5073050;28;19946;-66
2022/01/02 05:58:22;;;;;;;;;;;0.10;96.90;;;;;;5072992;28;20411;-66
2022/01/02 06:00:48;;;;;;;;;;;0.10;96.90;;;;;;5071744;28;20057;-66
2022/01/02 06:03:13;;;;;;;;;;;0.00;96.80;;;;;;5073243;28;19945;-66
2022/01/02 06:05:39;;;;;;;;;;;0.00;96.80;;;;;;5072950;28;20030;-66
2022/01/02 06:08:04;;;;;;;;;;;0.10;96.90;;;;;;5072694;28;19958;-66
2022/01/02 06:10:30;;;;;;;;;;;0.10;96.90;;;;;;5072857;28;19964;-66
2022/01/02 06:12:55;;;;;;;;;;;0.10;96.90;;;;;;5072784;28;19979;-66
2022/01/02 06:15:21;;;;;;;;;;;0.20;96.80;;;;;;5072857;28;19941;-66
2022/01/02 06:17:46;;;;;;;;;;;0.20;96.80;;;;;;5073139;28;19945;-66
2022/01/02 06:20:12;;;;;;;;;;;0.20;96.70;;;;;;5072799;28;19941;-66
2022/01/02 06:22:37;;;;;;;;;;;0.20;96.70;;;;;;5072802;28;19990;-66
2022/01/02 06:25:03;;;;;;;;;;;0.20;96.60;;;;;;5072733;28;19940;-66
2022/01/02 06:27:29;;;;;;;;;;;0.20;96.60;;;;;;5072629;28;19942;-66
2022/01/02 06:29:54;;;;;;;;;;;0.10;96.40;;;;;;5074372;28;19942;-66
2022/01/02 06:32:20;;;;;;;;;;;0.00;96.30;;;;;;5076664;28;19987;-66
2022/01/02 06:34:46;;;;;;;;;;;0.00;96.40;;;;;;5076497;28;20010;-66
2022/01/02 06:37:12;;;;;;;;;;;0.00;96.30;;;;;;5076567;28;19941;-66
2022/01/02 06:39:37;;;;;;;;;;;0.00;96.40;;;;;;5076533;28;19945;-66
2022/01/02 06:42:03;;;;;;;;;;;0.00;96.40;;;;;;5076437;28;20427;-66
2022/01/02 06:44:29;;;;;;;;;;;0.00;96.50;;;;;;5076403;28;19950;-66
2022/01/02 06:46:54;;;;;;;;;;;0.00;96.40;;;;;;5076278;28;20345;-66
2022/01/02 06:49:20;;;;;;;;;;;0.00;96.50;;;;;;5076288;28;20397;-66
2022/01/02 06:51:45;;;;;;;;;;;0.00;96.50;;;;;;5076242;28;20414;-66
2022/01/02 06:54:11;;;;;;;;;;;0.00;96.50;;;;;;5076096;28;20346;-66
2022/01/02 06:56:36;;;;;;;;;;;0.00;96.40;;;;;;5076098;28;19940;-66
2022/01/02 06:59:02;;;;;;;;;;;0.00;96.40;;;;;;5074778;28;19997;-66
2022/01/02 07:01:27;;;;;;;;;;;0.00;96.40;;;;;;5076075;28;19942;-66
2022/01/02 07:03:53;;;;;;;;;;;0.00;96.40;;;;;;5075988;28;19937;-65
2022/01/02 07:06:18;;;;;;;;;;;0.00;96.30;;;;;;5075952;28;19940;-66
2022/01/02 07:08:44;;;;;;;;;;;0.00;96.30;;;;;;5074397;28;20022;-66
2022/01/02 07:11:11;;;;;;;;;;;0.00;96.30;;;;;;5075901;28;20408;-66
2022/01/02 07:13:38;;;;;;;;;;;0.00;96.30;;;;;;5075778;28;20492;-66
2022/01/02 07:16:04;;;;;;;;;;;0.10;96.30;;;;;;5074544;28;19942;-66
2022/01/02 07:18:29;;;;;;;;;;;0.10;96.30;;;;;;5075780;28;19946;-66
2022/01/02 07:20:55;;;;;;;;;;;0.10;96.30;;;;;;5075706;28;19995;-66
2022/01/02 07:23:20;;;;;;;;;;;0.20;96.30;;;;;;5075708;28;19959;-66
2022/01/02 07:25:46;;;;;;;;;;;0.20;96.20;;;;;;5075610;28;19940;-66
2022/01/02 07:28:11;;;;;;;;;;;0.10;96.10;;;;;;5075550;28;19942;-66
2022/01/02 07:30:37;;;;;;;;;;;0.10;96.10;;;;;;5075567;28;19943;-66
2022/01/02 07:33:02;;;;;;;;;;;0.20;96.10;;;;;;5074154;28;19999;-66
2022/01/02 07:35:29;;;;;;;;;;;0.20;96.20;;;;;;5074195;28;19974;-66
2022/01/02 07:37:54;;;;;;;;;;;0.30;96.20;;;;;;5075439;28;19949;-66
2022/01/02 07:40:20;;;;;;;;;;;0.30;96.20;;;;;;5075394;28;19939;-66
2022/01/02 07:42:45;;;;;;;;;;;0.30;96.10;;;;;;5075647;28;20005;-66
2022/01/02 07:45:12;;;;;;;;;;;0.30;96.00;;;;;;5075275;28;19942;-66
2022/01/02 07:47:38;;;;;;;;;;;0.40;96.10;;;;;;5075296;28;19940;-66
2022/01/02 07:50:04;;;;;;;;;;;0.50;96.00;;;;;;5075222;28;19938;-66
2022/01/02 07:52:30;;;;;;;;;;;0.50;95.90;;;;;;5075129;28;19939;-66
2022/01/02 07:54:55;;;;;;;;;;;0.50;95.80;;;;;;5074106;28;20392;-66
2022/01/02 07:57:21;;;;;;;;;;;0.60;95.80;;;;;;5075047;28;19948;-66
2022/01/02 07:59:47;;;;;;;;;;;0.50;95.70;;;;;;5075010;28;20422;-66
2022/01/02 08:02:12;;;;;;;;;;;0.50;95.30;;;;;;5074938;28;20032;-66
2022/01/02 08:04:38;;;;;;;;;;;0.50;95.40;;;;;;5073651;28;20067;-66
2022/01/02 08:07:03;;;;;;;;;;;0.50;95.40;;;;;;5075145;28;20039;-66
2022/01/02 08:09:29;;;;;;;;;;;0.50;95.40;;;;;;5074585;28;20389;-66
2022/01/02 08:11:55;;;;;;;;;;;0.50;95.40;;;;;;5073389;28;19995;-66
2022/01/02 08:14:21;;;;;;;;;;;0.60;95.40;;;;;;5074683;28;19983;-66
2022/01/02 08:16:47;;;;;;;;;;;0.60;95.30;;;;;;5074696;28;19943;-66
2022/01/02 08:19:13;;;;;;;;;;;0.60;95.20;;;;;;5074830;28;19953;-66
2022/01/02 08:21:39;;;;;;;;;;;0.70;95.30;;;;;;5074604;28;19993;-66
2022/01/02 08:24:05;;;;;;;;;;;0.70;95.30;;;;;;5074547;28;19943;-66
2022/01/02 08:26:31;;;;;;;;;;;0.70;95.10;;;;;;5074411;28;20424;-66
2022/01/02 08:29:00;;;;;;;;;;;0.70;95.00;;;;;;5074428;28;19949;-66
2022/01/02 08:31:28;;;;;;;;;;;0.70;95.20;;;;;;5073101;28;19992;-66
2022/01/02 08:33:55;;;;;;;;;;;0.70;95.30;;;;;;5074244;28;19969;-66
2022/01/02 08:36:20;;;;;;;;;;;0.70;95.30;;;;;;5074277;28;19936;-66
2022/01/02 08:38:47;;;;;;;;;;;0.80;95.40;;;;;;5074249;28;19942;-66
2022/01/02 08:41:14;;;;;;;;;;;0.80;95.40;;;;;;5074170;28;20421;-66
2022/01/02 08:43:39;;;;;;;;;;;0.80;95.30;;;;;;5074155;28;20403;-66
2022/01/02 08:46:05;;;;;;;;;;;0.90;95.40;;;;;;5074066;28;19934;-66
2022/01/02 08:48:30;;;;;;;;;;;0.90;95.30;;;;;;5074069;28;19950;-66
2022/01/02 08:50:56;;;;;;;;;;;0.90;95.30;;;;;;5073976;28;19943;-66
2022/01/02 08:53:22;;;;;;;;;;;0.80;95.00;;;;;;5072109;28;20062;-66
2022/01/02 08:55:47;;;;;;;;;;;0.70;94.90;;;;;;5073920;28;20030;-66
2022/01/02 08:58:13;;;;;;;;;;;0.80;95.20;;;;;;5073893;28;20023;-66
2022/01/02 09:00:38;;;;;;;;;;;0.90;95.30;;;;;;5073807;28;20431;-66
2022/01/02 09:03:04;;;;;;;;;;;0.90;95.30;;;;;;5073754;28;19943;-66
2022/01/02 09:05:30;;;;;;;;;;;1.00;95.30;;;;;;5072442;28;19955;-66
2022/01/02 09:07:56;;;;;;;;;;;1.10;95.10;;;;;;5073103;28;20396;-66
2022/01/02 09:10:21;;;;;;;;;;;1.20;94.90;;;;;;5072557;28;20017;-66
2022/01/02 09:12:47;;;;;;;;;;;1.10;94.50;;;;;;5073342;28;19942;-66
2022/01/02 09:15:13;;;;;;;;;;;1.10;94.50;;;;;;5073394;28;19963;-66
2022/01/02 09:17:39;;;;;;;;;;;1.00;94.40;;;;;;5073453;28;19990;-66
2022/01/02 09:20:06;;;;;;;;;;;0.90;94.40;;;;;;5073504;28;19996;-66
2022/01/02 09:22:31;;;;;;;;;;;0.90;94.40;;;;;;5073450;28;19938;-66
2022/01/02 09:24:57;;;;;;;;;;;1.00;94.70;;;;;;5073479;28;20288;-66
2022/01/02 09:27:23;;;;;;;;;;;1.10;94.80;;;;;;5073015;28;20524;-66
2022/01/02 09:29:48;;;;;;;;;;;1.10;94.80;;;;;;5073007;28;19941;-66
2022/01/02 09:32:14;;;;;;;;;;;1.00;94.30;;;;;;5073347;28;19948;-66
2022/01/02 09:34:39;;;;;;;;;;;0.80;94.00;;;;;;5073200;28;20047;-66
2022/01/02 09:37:05;;;;;;;;;;;0.80;94.20;;;;;;5072048;28;20419;-66
2022/01/02 09:39:31;;;;;;;;;;;0.70;94.50;;;;;;5073179;28;20428;-66
2022/01/02 09:41:56;;;;;;;;;;;0.80;94.60;;;;;;5073227;28;20027;-66
2022/01/02 09:44:22;;;;;;;;;;;0.80;94.70;;;;;;5072907;28;19943;-66
2022/01/02 09:46:50;;;;;;;;;;;0.90;94.80;;;;;;5072864;28;20470;-66
2022/01/02 09:49:16;;;;;;;;;;;1.00;95.10;;;;;;5069769;28;19956;-66
2022/01/02 09:51:41;;;;;;;;;;;1.00;95.10;;;;;;5071779;28;20318;-66
2022/01/02 09:54:09;;;;;;;;;;;1.10;95.10;;;;;;5070921;28;19956;-66
2022/01/02 09:56:34;;;;;;;;;;;1.00;94.70;;;;;;5053395;28;19995;-66
2022/01/02 09:59:02;;;;;;;;;;;1.00;94.80;;;;;;5052853;28;19991;-66
2022/01/02 10:01:29;;;;;;;;;;;1.10;95.00;;;;;;5052921;28;19941;-66
2022/01/02 10:03:55;;;;;;;;;;;1.20;94.90;;;;;;5052919;28;19962;-66
2022/01/02 10:06:36;;;;;;;;;;;1.10;94.70;;;;;;5055769;28;19944;-66
2022/01/02 10:09:01;;;;;;;;;;;1.20;94.80;;;;;;5056853;28;19980;-66
2022/01/02 10:11:27;;;;;;;;;;;1.10;94.80;;;;;;5057013;28;19944;-66
2022/01/02 10:13:54;;;;;;;;;;;1.10;94.70;;;;;;5055660;28;20380;-66
2022/01/02 10:16:20;;;;;;;;;;;1.00;94.70;;;;;;5056948;28;19947;-66
2022/01/02 10:18:46;;;;;;;;;;;0.90;94.70;;;;;;5056898;28;20028;-66
2022/01/02 10:21:25;;;;;;;;;;;0.80;94.80;;;;;;5056873;28;20011;-66
2022/01/02 10:24:08;;;;;;;;;;;1.00;95.10;;;;;;5056791;28;19949;-66
2022/01/02 10:26:33;;;;;;;;;;;1.00;95.20;;;;;;5056732;28;20000;-66
2022/01/02 10:29:02;;;;;;;;;;;1.10;95.10;;;;;;5055467;28;20383;-66
2022/01/02 10:31:34;;;;;;;;;;;1.10;95.00;;;;;;5056704;28;19940;-66
2022/01/02 10:33:59;;;;;;;;;;;1.20;95.00;;;;;;5056826;28;19970;-66
2022/01/02 10:36:30;;;;;;;;;;;1.30;95.00;;;;;;5056593;28;20390;-66
2022/01/02 10:39:05;;;;;;;;;;;1.30;95.00;;;;;;5056540;28;19949;-66
2022/01/02 10:41:35;;;;;;;;;;;1.40;94.80;;;;;;5056507;28;19943;-66
2022/01/02 10:44:20;;;;;;;;;;;1.20;94.20;;;;;;5056459;28;19967;-66
2022/01/02 10:47:04;;;;;;;;;;;1.10;94.10;;;;;;5056644;28;20046;-66
2022/01/02 10:49:48;;;;;;;;;;;1.20;94.50;;;;;;5056612;28;19942;-66
2022/01/02 10:52:22;;;;;;;;;;;1.40;94.70;;;;;;5056259;28;19981;-66
2022/01/02 10:54:48;;;;;;;;;;;1.60;94.70;;;;;;5056125;28;19970;-66
2022/01/02 10:57:13;;;;;;;;;;;1.60;94.50;;;;;;5056136;28;19940;-66
2022/01/02 10:59:39;;;;;;;;;;;1.60;93.80;;;;;;5056199;28;20402;-66
2022/01/02 11:02:05;;;;;;;;;;;1.40;93.60;;;;;;5056072;28;20362;-66
2022/01/02 11:04:32;;;;;;;;;;;1.50;94.00;;;;;;5056015;28;19941;-66
2022/01/02 11:07:02;;;;;;;;;;;1.60;94.10;;;;;;5055934;28;19963;-66
2022/01/02 11:09:28;;;;;;;;;;;1.70;94.20;;;;;;5055655;28;20015;-66
2022/01/02 11:11:54;;;;;;;;;;;1.90;94.20;;;;;;5055885;28;19947;-66
2022/01/02 11:14:20;;;;;;;;;;;2.00;93.90;;;;;;5055801;28;20326;-66
2022/01/02 11:16:45;;;;;;;;;;;2.10;93.80;;;;;;5055392;28;19968;-66
2022/01/02 11:19:11;;;;;;;;;;;2.20;93.60;;;;;;5055821;28;20309;-66
2022/01/02 11:21:40;;;;;;;;;;;2.20;93.30;;;;;;5055715;28;19995;-66
2022/01/02 11:24:18;;;;;;;;;;;2.10;93.20;;;;;;5055683;28;20034;-66
2022/01/02 11:26:54;;;;;;;;;;;2.10;93.20;;;;;;5054238;28;19948;-66
2022/01/02 11:29:29;;;;;;;;;;;2.10;93.20;;;;;;5055602;28;19942;-66
2022/01/02 11:31:55;;;;;;;;;;;2.00;93.50;;;;;;5055515;28;20027;-66
2022/01/02 11:34:22;;;;;;;;;;;2.00;93.70;;;;;;5055447;28;20048;-66
2022/01/02 11:36:47;;;;;;;;;;;2.00;93.70;;;;;;5055508;28;19936;-66
2022/01/02 11:39:13;;;;;;;;;;;2.00;93.70;;;;;;5055430;28;19945;-66
2022/01/02 11:41:38;;;;;;;;;;;1.90;94.00;;;;;;5055385;28;19945;-66
2022/01/02 11:44:08;;;;;;;;;;;1.90;94.10;;;;;;5055329;28;20040;-67
2022/01/02 11:46:40;;;;;;;;;;;1.90;94.20;;;;;;5054039;28;19947;-66
2022/01/02 11:49:07;;;;;;;;;;;2.00;94.40;;;;;;5055212;28;19993;-66
2022/01/02 11:51:50;;;;;;;;;;;2.00;94.10;;;;;;5055202;28;20032;-66
2022/01/02 11:54:28;;;;;;;;;;;1.90;94.20;;;;;;5055033;28;19961;-66
2022/01/02 11:56:54;;;;;;;;;;;1.90;94.30;;;;;;5053760;28;20407;-66
2022/01/02 11:59:38;;;;;;;;;;;2.10;94.30;;;;;;5055063;28;19936;-66
2022/01/02 12:02:27;;;;;;;;;;;2.00;94.10;;;;;;5054985;28;19943;-66
2022/01/02 12:05:14;;;;;;;;;;;2.00;94.20;;;;;;5046710;28;19949;-66
2022/01/02 12:07:50;;;;;;;;;;;2.20;94.20;;;;;;5054913;28;19943;-66
2022/01/02 12:12:59;;;;;;;;;;;2.20;93.70;;;;;;5055008;28;20002;-66
2022/01/02 12:15:30;;;;;;;;;;;2.00;93.50;;;;;;5054712;28;20431;-66
2022/01/02 12:18:26;;;;;;;;;;;2.00;93.60;;;;;;5054697;28;19938;-66
2022/01/02 12:25:58;;;;;;;;;;;1.90;93.90;;;;;;5054794;28;19953;-66
2022/01/02 12:28:24;;;;;;;;;;;1.90;94.20;;;;;;5053548;28;19991;-66
2022/01/02 12:30:51;;;;;;;;;;;1.80;94.30;;;;;;5054440;28;19939;-66
2022/01/02 12:33:27;;;;;;;;;;;1.90;94.60;;;;;;5054573;28;19968;-66
2022/01/02 12:35:53;;;;;;;;;;;1.90;94.70;;;;;;5054328;28;19941;-66
2022/01/02 12:38:18;;;;;;;;;;;1.90;94.70;;;;;;5054274;28;20039;-66
2022/01/02 12:40:44;;;;;;;;;;;1.90;94.70;;;;;;5054236;28;20031;-66
2022/01/02 12:43:10;;;;;;;;;;;1.90;94.90;;;;;;5054219;28;20042;-66
2022/01/02 12:45:37;;;;;;;;;;;2.10;95.10;;;;;;5054139;28;20390;-66
2022/01/02 12:48:02;;;;;;;;;;;2.20;95.00;;;;;;5054084;28;19953;-66
2022/01/02 12:50:29;;;;;;;;;;;2.10;94.50;;;;;;5054054;28;19948;-66
2022/01/02 12:52:55;;;;;;;;;;;2.10;94.40;;;;;;5053944;28;20366;-66
2022/01/02 12:55:21;;;;;;;;;;;2.10;94.30;;;;;;5052649;28;20297;-66
2022/01/02 12:57:47;;;;;;;;;;;2.20;94.40;;;;;;5053905;28;19991;-66
2022/01/02 13:00:12;;;;;;;;;;;2.20;94.50;;;;;;5053872;28;19966;-66
2022/01/02 13:02:38;;;;;;;;;;;2.20;94.20;;;;;;5053831;28;20303;-66
2022/01/02 13:05:04;;;;;;;;;;;2.20;94.10;;;;;;5053755;28;19944;-66
2022/01/02 13:07:36;;;;;;;;;;;2.20;94.20;;;;;;5053747;28;19993;-66
2022/01/02 13:10:06;;;;;;;;;;;2.20;94.20;;;;;;5077677;22;19984;-66
2022/01/02 13:12:33;;;;;;;;;;;2.30;94.30;;;;;;5073608;28;19961;-66
2022/01/02 13:15:13;;;;;;;;;;;2.30;94.20;;;;;;5072475;28;21800;-66
2022/01/02 13:17:41;;;;;;;;;;;2.20;94.10;;;;;;5073583;28;19944;-66
2022/01/02 13:20:15;;;;;;;;;;;2.30;94.30;;;;;;5073509;28;19943;-66
2022/01/02 13:22:40;;;;;;;;;;;2.20;93.90;;;;;;5073480;28;19945;-66
2022/01/02 13:25:06;;;;;;;;;;;2.20;94.00;;;;;;5073431;28;19943;-66
2022/01/02 13:27:31;;;;;;;;;;;2.20;94.00;;;;;;5073277;28;20033;-66
2022/01/02 13:29:58;;;;;;;;;;;2.10;94.10;;;;;;5073364;28;19944;-66
2022/01/02 13:32:25;;;;;;;;;;;2.20;94.40;;;;;;5073346;28;19935;-66
2022/01/02 13:34:57;;;;;;;;;;;2.30;94.40;;;;;;5073258;28;20025;-66
2022/01/02 13:37:29;;;;;;;;;;;2.40;94.50;;;;;;5073255;28;19957;-66
2022/01/02 13:39:54;;;;;;;;;;;2.40;94.40;;;;;;5073114;28;19950;-66
2022/01/02 13:42:33;;;;;;;;;;;2.40;94.20;;;;;;5073275;28;20315;-66
2022/01/02 13:45:06;;;;;;;;;;;2.40;94.40;;;;;;5073253;28;19948;-66
2022/01/02 13:47:32;;;;;;;;;;;2.50;94.60;;;;;;5055196;28;20411;-66
2022/01/02 13:49:58;;;;;;;;;;;2.60;94.60;;;;;;5073157;28;19945;-66
2022/01/02 13:52:24;;;;;;;;;;;2.60;94.30;;;;;;5073141;28;20066;-66
2022/01/02 13:54:49;;;;;;;;;;;2.50;94.20;;;;;;5073047;28;19971;-66
2022/01/02 13:57:16;;;;;;;;;;;2.50;94.50;;;;;;5073058;28;19944;-66
2022/01/02 13:59:45;;;;;;;;;;;2.50;94.30;;;;;;5073073;28;19939;-66
2022/01/02 14:02:11;;;;;;;;;;;2.50;94.40;;;;;;5073085;28;20033;-66
2022/01/02 14:04:58;;;;;;;;;;;2.60;94.60;;;;;;5073021;28;19941;-66
2022/01/02 14:07:27;;;;;;;;;;;2.70;94.50;;;;;;5073291;28;20050;-66
2022/01/02 14:09:53;;;;;;;;;;;2.70;94.30;;;;;;5072764;28;19970;-66
2022/01/02 14:12:23;;;;;;;;;;;2.70;94.30;;;;;;5073004;28;20037;-66
2022/01/02 14:14:56;;;;;;;;;;;2.70;94.30;;;;;;5072866;28;19961;-66
2022/01/02 14:17:34;;;;;;;;;;;2.80;94.30;;;;;;5072903;28;20047;-66
2022/01/02 14:20:04;;;;;;;;;;;2.90;94.10;;;;;;5072869;28;19944;-66
2022/01/02 14:22:33;;;;;;;;;;;2.90;93.90;;;;;;5072822;28;20386;-66
2022/01/02 14:24:58;;;;;;;;;;;2.90;93.70;;;;;;5072839;28;20026;-66
2022/01/02 14:27:25;;;;;;;;;;;2.90;93.60;;;;;;5072967;28;19982;-66
2022/01/02 14:29:51;;;;;;;;;;;3.00;93.50;;;;;;5072794;28;20001;-66
2022/01/02 14:32:17;;;;;;;;;;;2.90;93.30;;;;;;5072805;28;20224;-66
2022/01/02 14:34:43;;;;;;;;;;;3.00;93.20;;;;;;5072634;28;20278;-66
2022/01/02 14:37:13;;;;;;;;;;;2.90;93.10;;;;;;5072716;28;20034;-66
2022/01/02 14:39:38;;;;;;;;;;;3.00;93.20;;;;;;5072698;28;20026;-66